sensor_id;sensor_type;location;lat;lon;timestamp;temperature;humidity
14079;DHT22;7115;50.150;8.568;2023-06-10T00:02:04;22.50;83.10
14079;DHT22;7115;50.150;8.568;2023-06-10T00:04:31;22.50;83.20
14079;DHT22;7115;50.150;8.568;2023-06-10T00:06:58;22.50;83.30
14079;DHT22;7115;50.150;8.568;2023-06-10T00:09:25;22.40;83.40
14079;DHT22;7115;50.150;8.568;2023-06-10T00:11:53;22.40;83.50
14079;DHT22;7115;50.150;8.568;2023-06-10T00:14:20;22.30;83.60
14079;DHT22;7115;50.150;8.568;2023-06-10T00:16:47;22.30;83.70
14079;DHT22;7115;50.150;8.568;2023-06-10T00:19:15;22.30;83.90
14079;DHT22;7115;50.150;8.568;2023-06-10T00:21:42;22.30;84.00
14079;DHT22;7115;50.150;8.568;2023-06-10T00:24:11;22.20;84.00
14079;DHT22;7115;50.150;8.568;2023-06-10T00:26:41;22.20;84.10
14079;DHT22;7115;50.150;8.568;2023-06-10T00:29:08;22.10;84.30
14079;DHT22;7115;50.150;8.568;2023-06-10T00:31:36;22.10;84.40
14079;DHT22;7115;50.150;8.568;2023-06-10T00:34:04;22.00;84.50
14079;DHT22;7115;50.150;8.568;2023-06-10T00:36:32;22.00;84.50
14079;DHT22;7115;50.150;8.568;2023-06-10T00:38:59;21.90;84.60
14079;DHT22;7115;50.150;8.568;2023-06-10T00:41:26;21.90;84.70
14079;DHT22;7115;50.150;8.568;2023-06-10T00:43:53;21.90;84.70
14079;DHT22;7115;50.150;8.568;2023-06-10T00:46:20;21.90;84.60
14079;DHT22;7115;50.150;8.568;2023-06-10T00:48:48;21.90;84.70
14079;DHT22;7115;50.150;8.568;2023-06-10T00:51:16;21.90;84.60
14079;DHT22;7115;50.150;8.568;2023-06-10T00:53:45;21.90;84.50
14079;DHT22;7115;50.150;8.568;2023-06-10T00:56:13;21.90;84.80
14079;DHT22;7115;50.150;8.568;2023-06-10T00:58:40;21.90;84.60
14079;DHT22;7115;50.150;8.568;2023-06-10T01:01:07;21.80;84.40
14079;DHT22;7115;50.150;8.568;2023-06-10T01:03:37;21.80;84.50
14079;DHT22;7115;50.150;8.568;2023-06-10T01:06:11;21.80;84.60
14079;DHT22;7115;50.150;8.568;2023-06-10T01:08:47;21.80;84.60
14079;DHT22;7115;50.150;8.568;2023-06-10T01:11:19;21.80;84.50
14079;DHT22;7115;50.150;8.568;2023-06-10T01:13:50;21.70;84.30
14079;DHT22;7115;50.150;8.568;2023-06-10T01:16:19;21.70;84.10
14079;DHT22;7115;50.150;8.568;2023-06-10T01:18:46;21.70;84.10
14079;DHT22;7115;50.150;8.568;2023-06-10T01:21:19;21.70;84.00
14079;DHT22;7115;50.150;8.568;2023-06-10T01:23:46;21.70;84.00
14079;DHT22;7115;50.150;8.568;2023-06-10T01:26:14;21.70;84.00
14079;DHT22;7115;50.150;8.568;2023-06-10T01:28:47;21.70;83.90
14079;DHT22;7115;50.150;8.568;2023-06-10T01:31:18;21.70;83.60
14079;DHT22;7115;50.150;8.568;2023-06-10T01:33:51;21.70;83.50
14079;DHT22;7115;50.150;8.568;2023-06-10T01:36:20;21.70;83.50
14079;DHT22;7115;50.150;8.568;2023-06-10T01:38:50;21.70;83.40
14079;DHT22;7115;50.150;8.568;2023-06-10T01:41:18;21.70;83.30
14079;DHT22;7115;50.150;8.568;2023-06-10T01:43:48;21.70;83.30
14079;DHT22;7115;50.150;8.568;2023-06-10T01:46:15;21.60;83.20
14079;DHT22;7115;50.150;8.568;2023-06-10T01:48:46;21.60;83.00
14079;DHT22;7115;50.150;8.568;2023-06-10T01:51:13;21.60;83.00
14079;DHT22;7115;50.150;8.568;2023-06-10T01:53:41;21.60;83.00
14079;DHT22;7115;50.150;8.568;2023-06-10T01:56:08;21.60;83.00
14079;DHT22;7115;50.150;8.568;2023-06-10T01:58:35;21.50;83.00
14079;DHT22;7115;50.150;8.568;2023-06-10T02:01:02;21.50;83.00
14079;DHT22;7115;50.150;8.568;2023-06-10T02:03:29;21.50;83.00
14079;DHT22;7115;50.150;8.568;2023-06-10T02:05:56;21.40;82.90
14079;DHT22;7115;50.150;8.568;2023-06-10T02:08:23;21.40;82.90
14079;DHT22;7115;50.150;8.568;2023-06-10T02:10:51;21.30;82.80
14079;DHT22;7115;50.150;8.568;2023-06-10T02:13:18;21.30;82.80
14079;DHT22;7115;50.150;8.568;2023-06-10T02:15:45;21.30;82.80
14079;DHT22;7115;50.150;8.568;2023-06-10T02:18:12;21.20;82.80
14079;DHT22;7115;50.150;8.568;2023-06-10T02:20:38;21.10;82.80
14079;DHT22;7115;50.150;8.568;2023-06-10T02:23:05;21.10;83.70
14079;DHT22;7115;50.150;8.568;2023-06-10T02:25:32;21.10;83.10
14079;DHT22;7115;50.150;8.568;2023-06-10T02:28:01;21.20;83.40
14079;DHT22;7115;50.150;8.568;2023-06-10T02:30:30;21.10;83.30
14079;DHT22;7115;50.150;8.568;2023-06-10T02:32:57;21.10;83.20
14079;DHT22;7115;50.150;8.568;2023-06-10T02:35:26;21.10;83.10
14079;DHT22;7115;50.150;8.568;2023-06-10T02:37:53;21.10;83.00
14079;DHT22;7115;50.150;8.568;2023-06-10T02:40:20;21.10;83.00
14079;DHT22;7115;50.150;8.568;2023-06-10T02:42:47;21.00;83.30
14079;DHT22;7115;50.150;8.568;2023-06-10T02:45:15;21.00;82.90
14079;DHT22;7115;50.150;8.568;2023-06-10T02:47:42;21.00;83.00
14079;DHT22;7115;50.150;8.568;2023-06-10T02:50:09;20.90;82.90
14079;DHT22;7115;50.150;8.568;2023-06-10T02:52:36;20.90;82.80
14079;DHT22;7115;50.150;8.568;2023-06-10T02:55:03;20.90;82.70
14079;DHT22;7115;50.150;8.568;2023-06-10T02:57:30;20.90;82.70
14079;DHT22;7115;50.150;8.568;2023-06-10T02:59:57;20.80;82.50
14079;DHT22;7115;50.150;8.568;2023-06-10T03:02:26;20.80;82.60
14079;DHT22;7115;50.150;8.568;2023-06-10T03:04:55;20.80;82.60
14079;DHT22;7115;50.150;8.568;2023-06-10T03:07:22;20.80;82.50
14079;DHT22;7115;50.150;8.568;2023-06-10T03:09:50;20.80;82.50
14079;DHT22;7115;50.150;8.568;2023-06-10T03:12:17;20.80;82.50
14079;DHT22;7115;50.150;8.568;2023-06-10T03:14:44;20.80;82.40
14079;DHT22;7115;50.150;8.568;2023-06-10T03:17:11;20.80;82.50
14079;DHT22;7115;50.150;8.568;2023-06-10T03:19:39;20.90;82.30
14079;DHT22;7115;50.150;8.568;2023-06-10T03:22:10;20.90;82.20
14079;DHT22;7115;50.150;8.568;2023-06-10T03:24:37;20.90;82.10
14079;DHT22;7115;50.150;8.568;2023-06-10T03:27:07;20.90;82.00
14079;DHT22;7115;50.150;8.568;2023-06-10T03:29:34;20.90;82.10
14079;DHT22;7115;50.150;8.568;2023-06-10T03:32:01;20.90;82.20
14079;DHT22;7115;50.150;8.568;2023-06-10T03:34:28;20.90;82.20
14079;DHT22;7115;50.150;8.568;2023-06-10T03:36:58;20.90;82.30
14079;DHT22;7115;50.150;8.568;2023-06-10T03:39:25;20.90;82.40
14079;DHT22;7115;50.150;8.568;2023-06-10T03:41:55;20.80;82.50
14079;DHT22;7115;50.150;8.568;2023-06-10T03:44:24;20.80;82.40
14079;DHT22;7115;50.150;8.568;2023-06-10T03:46:52;20.80;82.50
14079;DHT22;7115;50.150;8.568;2023-06-10T03:49:19;20.70;82.70
14079;DHT22;7115;50.150;8.568;2023-06-10T03:51:46;20.70;82.70
14079;DHT22;7115;50.150;8.568;2023-06-10T03:54:15;20.70;82.80
14079;DHT22;7115;50.150;8.568;2023-06-10T03:56:41;20.70;82.80
14079;DHT22;7115;50.150;8.568;2023-06-10T03:59:08;20.70;82.90
14079;DHT22;7115;50.150;8.568;2023-06-10T04:01:35;20.70;82.90
14079;DHT22;7115;50.150;8.568;2023-06-10T04:04:04;20.60;83.10
14079;DHT22;7115;50.150;8.568;2023-06-10T04:06:31;20.60;83.40
14079;DHT22;7115;50.150;8.568;2023-06-10T04:08:58;20.60;83.70
14079;DHT22;7115;50.150;8.568;2023-06-10T04:11:26;20.60;83.90
14079;DHT22;7115;50.150;8.568;2023-06-10T04:13:53;20.60;84.10
14079;DHT22;7115;50.150;8.568;2023-06-10T04:16:20;20.50;84.10
14079;DHT22;7115;50.150;8.568;2023-06-10T04:18:48;20.50;84.30
14079;DHT22;7115;50.150;8.568;2023-06-10T04:21:14;20.50;85.00
14079;DHT22;7115;50.150;8.568;2023-06-10T04:23:41;20.50;84.30
14079;DHT22;7115;50.150;8.568;2023-06-10T04:26:08;20.60;84.40
14079;DHT22;7115;50.150;8.568;2023-06-10T04:28:38;20.60;84.30
14079;DHT22;7115;50.150;8.568;2023-06-10T04:31:04;20.70;84.10
14079;DHT22;7115;50.150;8.568;2023-06-10T04:33:31;20.70;84.00
14079;DHT22;7115;50.150;8.568;2023-06-10T04:35:59;20.70;84.00
14079;DHT22;7115;50.150;8.568;2023-06-10T04:38:26;20.80;83.90
14079;DHT22;7115;50.150;8.568;2023-06-10T04:40:53;20.80;83.90
14079;DHT22;7115;50.150;8.568;2023-06-10T04:43:20;20.90;83.80
14079;DHT22;7115;50.150;8.568;2023-06-10T04:45:48;20.90;83.80
14079;DHT22;7115;50.150;8.568;2023-06-10T04:48:15;21.00;84.00
14079;DHT22;7115;50.150;8.568;2023-06-10T04:50:42;21.00;84.10
14079;DHT22;7115;50.150;8.568;2023-06-10T04:53:09;21.00;84.20
14079;DHT22;7115;50.150;8.568;2023-06-10T04:55:36;21.10;84.40
14079;DHT22;7115;50.150;8.568;2023-06-10T04:58:03;21.10;84.70
14079;DHT22;7115;50.150;8.568;2023-06-10T05:00:30;21.10;84.70
14079;DHT22;7115;50.150;8.568;2023-06-10T05:02:58;21.10;84.60
14079;DHT22;7115;50.150;8.568;2023-06-10T05:05:25;21.20;84.50
14079;DHT22;7115;50.150;8.568;2023-06-10T05:07:52;21.30;84.40
14079;DHT22;7115;50.150;8.568;2023-06-10T05:10:19;21.30;84.20
14079;DHT22;7115;50.150;8.568;2023-06-10T05:12:45;21.30;83.90
14079;DHT22;7115;50.150;8.568;2023-06-10T05:15:12;21.40;83.90
14079;DHT22;7115;50.150;8.568;2023-06-10T05:17:39;21.50;83.70
14079;DHT22;7115;50.150;8.568;2023-06-10T05:20:09;21.50;83.40
14079;DHT22;7115;50.150;8.568;2023-06-10T05:22:36;21.60;83.20
14079;DHT22;7115;50.150;8.568;2023-06-10T05:25:03;21.70;83.00
14079;DHT22;7115;50.150;8.568;2023-06-10T05:27:30;21.80;82.90
14079;DHT22;7115;50.150;8.568;2023-06-10T05:29:57;21.80;82.70
14079;DHT22;7115;50.150;8.568;2023-06-10T05:32:24;21.90;82.60
14079;DHT22;7115;50.150;8.568;2023-06-10T05:34:51;22.00;82.60
14079;DHT22;7115;50.150;8.568;2023-06-10T05:37:19;22.10;82.50
14079;DHT22;7115;50.150;8.568;2023-06-10T05:39:46;22.10;82.50
14079;DHT22;7115;50.150;8.568;2023-06-10T05:42:13;22.20;82.40
14079;DHT22;7115;50.150;8.568;2023-06-10T05:44:40;22.30;82.30
14079;DHT22;7115;50.150;8.568;2023-06-10T05:47:07;22.40;82.20
14079;DHT22;7115;50.150;8.568;2023-06-10T05:49:34;22.50;82.80
14079;DHT22;7115;50.150;8.568;2023-06-10T05:52:01;22.50;83.40
14079;DHT22;7115;50.150;8.568;2023-06-10T05:54:29;22.50;84.30
14079;DHT22;7115;50.150;8.568;2023-06-10T05:56:56;22.60;84.90
14079;DHT22;7115;50.150;8.568;2023-06-10T05:59:23;22.70;85.20
14079;DHT22;7115;50.150;8.568;2023-06-10T06:01:50;22.70;85.20
14079;DHT22;7115;50.150;8.568;2023-06-10T06:04:17;22.70;85.10
14079;DHT22;7115;50.150;8.568;2023-06-10T06:06:44;22.80;85.10
14079;DHT22;7115;50.150;8.568;2023-06-10T06:09:11;22.90;85.00
14079;DHT22;7115;50.150;8.568;2023-06-10T06:11:39;23.00;85.00
14079;DHT22;7115;50.150;8.568;2023-06-10T06:14:06;23.00;84.80
14079;DHT22;7115;50.150;8.568;2023-06-10T06:16:33;23.10;84.30
14079;DHT22;7115;50.150;8.568;2023-06-10T06:19:00;23.20;83.60
14079;DHT22;7115;50.150;8.568;2023-06-10T06:21:27;23.20;83.00
14079;DHT22;7115;50.150;8.568;2023-06-10T06:23:54;23.30;82.50
14079;DHT22;7115;50.150;8.568;2023-06-10T06:26:21;23.40;82.20
14079;DHT22;7115;50.150;8.568;2023-06-10T06:28:49;23.50;82.10
14079;DHT22;7115;50.150;8.568;2023-06-10T06:31:16;23.50;82.50
14079;DHT22;7115;50.150;8.568;2023-06-10T06:33:43;23.60;82.90
14079;DHT22;7115;50.150;8.568;2023-06-10T06:36:10;23.60;83.20
14079;DHT22;7115;50.150;8.568;2023-06-10T06:38:37;23.70;83.40
14079;DHT22;7115;50.150;8.568;2023-06-10T06:41:04;23.80;83.40
14079;DHT22;7115;50.150;8.568;2023-06-10T06:43:33;23.80;83.20
14079;DHT22;7115;50.150;8.568;2023-06-10T06:46:01;23.90;83.10
14079;DHT22;7115;50.150;8.568;2023-06-10T06:48:28;23.90;82.70
14079;DHT22;7115;50.150;8.568;2023-06-10T06:50:56;24.00;82.50
14079;DHT22;7115;50.150;8.568;2023-06-10T06:53:24;24.00;82.20
14079;DHT22;7115;50.150;8.568;2023-06-10T06:55:51;24.10;82.00
14079;DHT22;7115;50.150;8.568;2023-06-10T06:58:18;24.10;81.90
14079;DHT22;7115;50.150;8.568;2023-06-10T07:00:45;24.10;81.80
14079;DHT22;7115;50.150;8.568;2023-06-10T07:03:14;24.10;81.50
14079;DHT22;7115;50.150;8.568;2023-06-10T07:05:41;24.20;81.30
14079;DHT22;7115;50.150;8.568;2023-06-10T07:08:08;24.30;81.20
14079;DHT22;7115;50.150;8.568;2023-06-10T07:10:35;24.30;80.90
14079;DHT22;7115;50.150;8.568;2023-06-10T07:13:02;24.40;80.80
14079;DHT22;7115;50.150;8.568;2023-06-10T07:15:29;24.50;80.80
14079;DHT22;7115;50.150;8.568;2023-06-10T07:17:56;24.50;80.50
14079;DHT22;7115;50.150;8.568;2023-06-10T07:20:24;24.70;80.20
14079;DHT22;7115;50.150;8.568;2023-06-10T07:22:51;24.70;79.60
14079;DHT22;7115;50.150;8.568;2023-06-10T07:25:18;24.90;79.20
14079;DHT22;7115;50.150;8.568;2023-06-10T07:27:45;25.00;78.70
14079;DHT22;7115;50.150;8.568;2023-06-10T07:30:13;25.10;79.00
14079;DHT22;7115;50.150;8.568;2023-06-10T07:32:39;25.10;77.80
14079;DHT22;7115;50.150;8.568;2023-06-10T07:35:09;25.20;77.30
14079;DHT22;7115;50.150;8.568;2023-06-10T07:37:39;25.30;77.00
14079;DHT22;7115;50.150;8.568;2023-06-10T07:40:06;25.40;76.80
14079;DHT22;7115;50.150;8.568;2023-06-10T07:42:34;25.50;76.60
14079;DHT22;7115;50.150;8.568;2023-06-10T07:45:02;25.60;76.30
14079;DHT22;7115;50.150;8.568;2023-06-10T07:47:29;25.60;75.80
14079;DHT22;7115;50.150;8.568;2023-06-10T07:49:56;25.70;75.70
14079;DHT22;7115;50.150;8.568;2023-06-10T07:52:23;25.80;75.40
14079;DHT22;7115;50.150;8.568;2023-06-10T07:54:52;25.80;75.20
14079;DHT22;7115;50.150;8.568;2023-06-10T07:57:19;25.90;75.00
14079;DHT22;7115;50.150;8.568;2023-06-10T07:59:46;25.90;74.80
14079;DHT22;7115;50.150;8.568;2023-06-10T08:02:13;26.00;74.80
14079;DHT22;7115;50.150;8.568;2023-06-10T08:04:40;26.10;74.60
14079;DHT22;7115;50.150;8.568;2023-06-10T08:07:07;26.20;74.40
14079;DHT22;7115;50.150;8.568;2023-06-10T08:09:34;26.20;74.20
14079;DHT22;7115;50.150;8.568;2023-06-10T08:12:03;26.50;73.70
14079;DHT22;7115;50.150;8.568;2023-06-10T08:14:31;26.50;73.80
14079;DHT22;7115;50.150;8.568;2023-06-10T08:16:57;26.60;73.90
14079;DHT22;7115;50.150;8.568;2023-06-10T08:19:25;26.70;73.80
14079;DHT22;7115;50.150;8.568;2023-06-10T08:21:51;26.80;73.70
14079;DHT22;7115;50.150;8.568;2023-06-10T08:24:18;26.80;73.50
14079;DHT22;7115;50.150;8.568;2023-06-10T08:26:47;26.90;73.50
14079;DHT22;7115;50.150;8.568;2023-06-10T08:29:15;27.10;73.70
14079;DHT22;7115;50.150;8.568;2023-06-10T08:31:42;27.10;73.50
14079;DHT22;7115;50.150;8.568;2023-06-10T08:34:09;27.20;73.40
14079;DHT22;7115;50.150;8.568;2023-06-10T08:36:36;27.20;73.20
14079;DHT22;7115;50.150;8.568;2023-06-10T08:39:03;27.20;73.10
14079;DHT22;7115;50.150;8.568;2023-06-10T08:41:34;27.30;73.10
14079;DHT22;7115;50.150;8.568;2023-06-10T08:44:08;27.40;72.90
14079;DHT22;7115;50.150;8.568;2023-06-10T08:46:37;27.40;73.40
14079;DHT22;7115;50.150;8.568;2023-06-10T08:49:06;27.50;72.90
14079;DHT22;7115;50.150;8.568;2023-06-10T08:51:36;27.50;72.90
14079;DHT22;7115;50.150;8.568;2023-06-10T08:54:11;27.60;72.90
14079;DHT22;7115;50.150;8.568;2023-06-10T08:56:39;27.70;73.00
14079;DHT22;7115;50.150;8.568;2023-06-10T08:59:07;27.80;73.00
14079;DHT22;7115;50.150;8.568;2023-06-10T09:01:34;27.90;72.90
14079;DHT22;7115;50.150;8.568;2023-06-10T09:04:04;28.00;73.00
14079;DHT22;7115;50.150;8.568;2023-06-10T09:06:32;28.10;72.90
14079;DHT22;7115;50.150;8.568;2023-06-10T09:09:00;28.10;72.50
14079;DHT22;7115;50.150;8.568;2023-06-10T09:11:29;28.10;72.20
14079;DHT22;7115;50.150;8.568;2023-06-10T09:13:58;28.20;72.20
14079;DHT22;7115;50.150;8.568;2023-06-10T09:16:25;28.30;72.10
14079;DHT22;7115;50.150;8.568;2023-06-10T09:18:52;28.30;72.90
14079;DHT22;7115;50.150;8.568;2023-06-10T09:21:23;28.30;71.90
14079;DHT22;7115;50.150;8.568;2023-06-10T09:23:50;28.40;71.70
14079;DHT22;7115;50.150;8.568;2023-06-10T09:26:18;28.40;71.80
14079;DHT22;7115;50.150;8.568;2023-06-10T09:28:48;28.40;71.60
14079;DHT22;7115;50.150;8.568;2023-06-10T09:31:15;28.40;71.30
14079;DHT22;7115;50.150;8.568;2023-06-10T09:33:45;28.50;71.00
14079;DHT22;7115;50.150;8.568;2023-06-10T09:36:22;28.50;70.90
14079;DHT22;7115;50.150;8.568;2023-06-10T09:38:50;28.60;71.20
14079;DHT22;7115;50.150;8.568;2023-06-10T09:41:20;28.70;71.00
14079;DHT22;7115;50.150;8.568;2023-06-10T09:43:48;28.80;70.90
14079;DHT22;7115;50.150;8.568;2023-06-10T09:46:16;28.90;71.00
14079;DHT22;7115;50.150;8.568;2023-06-10T09:48:44;29.00;70.90
14079;DHT22;7115;50.150;8.568;2023-06-10T09:51:12;29.00;70.40
14079;DHT22;7115;50.150;8.568;2023-06-10T09:53:41;29.10;69.10
14079;DHT22;7115;50.150;8.568;2023-06-10T09:56:08;29.10;69.20
14079;DHT22;7115;50.150;8.568;2023-06-10T09:58:38;29.10;69.00
14079;DHT22;7115;50.150;8.568;2023-06-10T10:01:05;29.10;68.90
14079;DHT22;7115;50.150;8.568;2023-06-10T10:03:33;29.20;69.00
14079;DHT22;7115;50.150;8.568;2023-06-10T10:06:00;29.30;68.80
14079;DHT22;7115;50.150;8.568;2023-06-10T10:08:30;29.30;68.20
14079;DHT22;7115;50.150;8.568;2023-06-10T10:10:58;29.40;67.80
14079;DHT22;7115;50.150;8.568;2023-06-10T10:13:26;29.40;67.70
14079;DHT22;7115;50.150;8.568;2023-06-10T10:15:56;29.50;67.40
14079;DHT22;7115;50.150;8.568;2023-06-10T10:18:29;29.60;67.20
14079;DHT22;7115;50.150;8.568;2023-06-10T10:21:00;29.60;66.80
14079;DHT22;7115;50.150;8.568;2023-06-10T10:23:32;29.70;66.90
14079;DHT22;7115;50.150;8.568;2023-06-10T10:26:04;29.80;67.40
14079;DHT22;7115;50.150;8.568;2023-06-10T10:28:40;29.90;67.60
14079;DHT22;7115;50.150;8.568;2023-06-10T10:31:09;30.10;67.50
14079;DHT22;7115;50.150;8.568;2023-06-10T10:33:42;30.20;67.40
14079;DHT22;7115;50.150;8.568;2023-06-10T10:36:14;30.30;67.30
14079;DHT22;7115;50.150;8.568;2023-06-10T10:38:42;30.50;67.30
14079;DHT22;7115;50.150;8.568;2023-06-10T10:41:11;30.60;66.90
14079;DHT22;7115;50.150;8.568;2023-06-10T10:43:38;30.80;66.50
14079;DHT22;7115;50.150;8.568;2023-06-10T10:46:16;30.70;66.00
14079;DHT22;7115;50.150;8.568;2023-06-10T10:48:44;30.80;66.00
14079;DHT22;7115;50.150;8.568;2023-06-10T10:51:12;30.80;66.00
14079;DHT22;7115;50.150;8.568;2023-06-10T10:53:42;30.90;65.90
14079;DHT22;7115;50.150;8.568;2023-06-10T10:56:15;31.00;65.60
14079;DHT22;7115;50.150;8.568;2023-06-10T10:58:42;31.00;65.30
14079;DHT22;7115;50.150;8.568;2023-06-10T11:01:13;31.10;65.00
14079;DHT22;7115;50.150;8.568;2023-06-10T11:03:45;31.10;64.40
14079;DHT22;7115;50.150;8.568;2023-06-10T11:06:15;31.10;64.20
14079;DHT22;7115;50.150;8.568;2023-06-10T11:08:46;31.20;64.20
14079;DHT22;7115;50.150;8.568;2023-06-10T11:11:21;31.30;63.90
14079;DHT22;7115;50.150;8.568;2023-06-10T11:14:07;31.40;63.10
14079;DHT22;7115;50.150;8.568;2023-06-10T11:16:40;31.50;62.50
14079;DHT22;7115;50.150;8.568;2023-06-10T11:19:33;31.50;62.70
14079;DHT22;7115;50.150;8.568;2023-06-10T11:22:06;31.70;62.10
14079;DHT22;7115;50.150;8.568;2023-06-10T11:24:33;31.70;61.80
14079;DHT22;7115;50.150;8.568;2023-06-10T11:27:18;31.60;61.30
14079;DHT22;7115;50.150;8.568;2023-06-10T11:29:58;31.70;61.20
14079;DHT22;7115;50.150;8.568;2023-06-10T11:32:29;31.80;60.80
14079;DHT22;7115;50.150;8.568;2023-06-10T11:34:58;31.90;60.40
14079;DHT22;7115;50.150;8.568;2023-06-10T11:37:25;32.00;59.50
14079;DHT22;7115;50.150;8.568;2023-06-10T11:39:52;32.00;58.70
14079;DHT22;7115;50.150;8.568;2023-06-10T11:42:21;32.00;58.30
14079;DHT22;7115;50.150;8.568;2023-06-10T11:44:49;32.10;58.20
14079;DHT22;7115;50.150;8.568;2023-06-10T11:47:16;32.20;57.90
14079;DHT22;7115;50.150;8.568;2023-06-10T11:49:43;32.20;57.40
14079;DHT22;7115;50.150;8.568;2023-06-10T11:52:13;32.30;57.10
14079;DHT22;7115;50.150;8.568;2023-06-10T11:54:40;32.50;57.00
14079;DHT22;7115;50.150;8.568;2023-06-10T11:57:07;32.50;56.50
14079;DHT22;7115;50.150;8.568;2023-06-10T11:59:36;32.50;56.30
14079;DHT22;7115;50.150;8.568;2023-06-10T12:02:03;32.40;56.40
14079;DHT22;7115;50.150;8.568;2023-06-10T12:04:31;32.30;56.40
14079;DHT22;7115;50.150;8.568;2023-06-10T12:06:57;32.40;56.70
14079;DHT22;7115;50.150;8.568;2023-06-10T12:09:25;32.40;56.90
14079;DHT22;7115;50.150;8.568;2023-06-10T12:11:57;32.40;57.00
14079;DHT22;7115;50.150;8.568;2023-06-10T12:14:57;32.40;56.80
14079;DHT22;7115;50.150;8.568;2023-06-10T12:17:36;32.20;56.50
14079;DHT22;7115;50.150;8.568;2023-06-10T12:20:06;32.20;57.00
14079;DHT22;7115;50.150;8.568;2023-06-10T12:22:36;32.20;57.00
14079;DHT22;7115;50.150;8.568;2023-06-10T12:25:05;32.30;56.80
14079;DHT22;7115;50.150;8.568;2023-06-10T12:27:34;32.30;56.80
14079;DHT22;7115;50.150;8.568;2023-06-10T12:30:04;32.40;56.90
14079;DHT22;7115;50.150;8.568;2023-06-10T12:32:37;32.40;56.80
14079;DHT22;7115;50.150;8.568;2023-06-10T12:35:06;32.40;56.60
14079;DHT22;7115;50.150;8.568;2023-06-10T12:37:35;32.40;56.60
14079;DHT22;7115;50.150;8.568;2023-06-10T12:40:06;32.40;56.60
14079;DHT22;7115;50.150;8.568;2023-06-10T12:42:35;32.40;56.50
14079;DHT22;7115;50.150;8.568;2023-06-10T12:45:06;32.30;56.10
14079;DHT22;7115;50.150;8.568;2023-06-10T12:47:37;32.30;56.20
14079;DHT22;7115;50.150;8.568;2023-06-10T12:50:08;32.30;56.20
14079;DHT22;7115;50.150;8.568;2023-06-10T12:52:36;32.40;56.10
14079;DHT22;7115;50.150;8.568;2023-06-10T12:55:03;32.50;56.20
14079;DHT22;7115;50.150;8.568;2023-06-10T12:57:31;32.40;56.50
14079;DHT22;7115;50.150;8.568;2023-06-10T12:59:58;32.70;56.80
14079;DHT22;7115;50.150;8.568;2023-06-10T13:02:31;32.80;56.50
14079;DHT22;7115;50.150;8.568;2023-06-10T13:04:59;33.00;56.30
14079;DHT22;7115;50.150;8.568;2023-06-10T13:07:26;33.00;56.20
14079;DHT22;7115;50.150;8.568;2023-06-10T13:09:53;32.80;56.10
14079;DHT22;7115;50.150;8.568;2023-06-10T13:12:20;32.60;56.20
14079;DHT22;7115;50.150;8.568;2023-06-10T13:15:08;32.50;56.60
14079;DHT22;7115;50.150;8.568;2023-06-10T13:17:36;32.50;57.20
14079;DHT22;7115;50.150;8.568;2023-06-10T13:20:04;32.60;57.60
14079;DHT22;7115;50.150;8.568;2023-06-10T13:22:34;32.60;57.40
14079;DHT22;7115;50.150;8.568;2023-06-10T13:25:03;32.80;57.30
14079;DHT22;7115;50.150;8.568;2023-06-10T13:27:31;32.90;57.20
14079;DHT22;7115;50.150;8.568;2023-06-10T13:29:58;32.90;57.10
14079;DHT22;7115;50.150;8.568;2023-06-10T13:32:25;32.90;57.00
14079;DHT22;7115;50.150;8.568;2023-06-10T13:34:53;32.90;56.60
14079;DHT22;7115;50.150;8.568;2023-06-10T13:37:20;32.90;56.30
14079;DHT22;7115;50.150;8.568;2023-06-10T13:39:47;32.90;56.50
14079;DHT22;7115;50.150;8.568;2023-06-10T13:42:17;33.00;56.70
14079;DHT22;7115;50.150;8.568;2023-06-10T13:44:44;33.10;56.70
14079;DHT22;7115;50.150;8.568;2023-06-10T13:47:11;33.20;56.70
14079;DHT22;7115;50.150;8.568;2023-06-10T13:49:38;33.30;56.60
14079;DHT22;7115;50.150;8.568;2023-06-10T13:52:07;33.30;56.30
14079;DHT22;7115;50.150;8.568;2023-06-10T13:54:34;33.30;56.10
14079;DHT22;7115;50.150;8.568;2023-06-10T13:57:03;33.20;56.20
14079;DHT22;7115;50.150;8.568;2023-06-10T13:59:30;33.10;56.00
14079;DHT22;7115;50.150;8.568;2023-06-10T14:01:57;32.90;55.90
14079;DHT22;7115;50.150;8.568;2023-06-10T14:04:24;32.80;56.00
14079;DHT22;7115;50.150;8.568;2023-06-10T14:06:50;32.80;56.20
14079;DHT22;7115;50.150;8.568;2023-06-10T14:09:19;32.90;56.40
14079;DHT22;7115;50.150;8.568;2023-06-10T14:11:46;32.90;56.10
14079;DHT22;7115;50.150;8.568;2023-06-10T14:14:14;32.80;55.70
14079;DHT22;7115;50.150;8.568;2023-06-10T14:16:41;32.70;55.60
14079;DHT22;7115;50.150;8.568;2023-06-10T14:19:09;32.50;55.60
14079;DHT22;7115;50.150;8.568;2023-06-10T14:21:36;32.40;55.90
14079;DHT22;7115;50.150;8.568;2023-06-10T14:24:03;32.30;56.10
14079;DHT22;7115;50.150;8.568;2023-06-10T14:26:32;32.20;56.20
14079;DHT22;7115;50.150;8.568;2023-06-10T14:28:59;32.20;56.40
14079;DHT22;7115;50.150;8.568;2023-06-10T14:31:26;32.10;56.70
14079;DHT22;7115;50.150;8.568;2023-06-10T14:33:53;32.30;56.90
14079;DHT22;7115;50.150;8.568;2023-06-10T14:36:20;32.40;57.00
14079;DHT22;7115;50.150;8.568;2023-06-10T14:38:47;32.50;57.00
14079;DHT22;7115;50.150;8.568;2023-06-10T14:41:14;32.40;56.80
14079;DHT22;7115;50.150;8.568;2023-06-10T14:43:42;32.50;56.80
14079;DHT22;7115;50.150;8.568;2023-06-10T14:46:09;32.60;56.90
14079;DHT22;7115;50.150;8.568;2023-06-10T14:48:36;32.60;56.80
14079;DHT22;7115;50.150;8.568;2023-06-10T14:51:03;32.50;56.50
14079;DHT22;7115;50.150;8.568;2023-06-10T14:53:30;32.50;56.50
14079;DHT22;7115;50.150;8.568;2023-06-10T14:55:57;32.50;56.40
14079;DHT22;7115;50.150;8.568;2023-06-10T14:58:24;32.60;56.30
14079;DHT22;7115;50.150;8.568;2023-06-10T15:00:52;32.60;56.30
14079;DHT22;7115;50.150;8.568;2023-06-10T15:03:19;32.60;56.20
14079;DHT22;7115;50.150;8.568;2023-06-10T15:05:46;32.50;56.00
14079;DHT22;7115;50.150;8.568;2023-06-10T15:08:13;32.40;56.00
14079;DHT22;7115;50.150;8.568;2023-06-10T15:10:40;32.40;56.00
14079;DHT22;7115;50.150;8.568;2023-06-10T15:13:07;32.30;56.00
14079;DHT22;7115;50.150;8.568;2023-06-10T15:15:34;32.20;56.00
14079;DHT22;7115;50.150;8.568;2023-06-10T15:18:02;32.30;56.10
14079;DHT22;7115;50.150;8.568;2023-06-10T15:20:29;32.30;56.10
14079;DHT22;7115;50.150;8.568;2023-06-10T15:22:56;32.30;56.10
14079;DHT22;7115;50.150;8.568;2023-06-10T15:25:23;32.30;55.80
14079;DHT22;7115;50.150;8.568;2023-06-10T15:27:57;32.40;55.60
14079;DHT22;7115;50.150;8.568;2023-06-10T15:30:25;32.30;55.50
14079;DHT22;7115;50.150;8.568;2023-06-10T15:32:52;32.30;55.70
14079;DHT22;7115;50.150;8.568;2023-06-10T15:35:20;32.30;55.80
14079;DHT22;7115;50.150;8.568;2023-06-10T15:37:48;32.30;55.70
14079;DHT22;7115;50.150;8.568;2023-06-10T15:40:15;32.30;55.80
14079;DHT22;7115;50.150;8.568;2023-06-10T15:42:42;32.20;55.70
14079;DHT22;7115;50.150;8.568;2023-06-10T15:45:10;32.20;55.90
14079;DHT22;7115;50.150;8.568;2023-06-10T15:47:38;32.20;56.10
14079;DHT22;7115;50.150;8.568;2023-06-10T15:50:07;32.10;56.00
14079;DHT22;7115;50.150;8.568;2023-06-10T15:52:36;32.10;56.00